Time;durP1;ratioP1;P1;durP2;ratioP2;P2;SDS_P1;SDS_P2;PMS_P1;PMS_P2;Temp;Humidity;BMP_temperature;BMP_pressure;BME280_temperature;BME280_humidity;BME280_pressure;Samples;Min_cycle;Max_cycle;Signal;HPM_P1;HPM_P2
2021/07/02 00:00:11;;;;;;;28.63;24.63;;;18.60;99.90;;;;;;4960702;28;20716;-65
2021/07/02 00:02:39;;;;;;;28.33;25.10;;;18.70;99.90;;;;;;4965142;28;20227;-64
2021/07/02 00:05:06;;;;;;;29.23;26.17;;;18.60;99.90;;;;;;4970014;28;20610;-65
2021/07/02 00:07:35;;;;;;;29.77;25.80;;;18.70;99.90;;;;;;4965917;28;20636;-65
2021/07/02 00:10:02;;;;;;;28.40;24.97;;;18.60;99.90;;;;;;4951892;28;20650;-66
2021/07/02 00:12:27;;;;;;;28.07;24.70;;;18.40;99.90;;;;;;4963087;28;20671;-64
2021/07/02 00:14:53;;;;;;;29.10;24.10;;;18.50;99.90;;;;;;4974762;28;20654;-65
2021/07/02 00:17:18;;;;;;;27.27;24.40;;;18.50;99.90;;;;;;4966371;28;20207;-66
2021/07/02 00:19:44;;;;;;;29.73;25.80;;;18.60;99.90;;;;;;4971725;28;20308;-65
2021/07/02 00:22:09;;;;;;;27.27;24.10;;;18.60;99.90;;;;;;4964893;28;20616;-65
2021/07/02 00:24:35;;;;;;;30.87;26.97;;;18.60;99.90;;;;;;4963401;28;20837;-66
2021/07/02 00:27:00;;;;;;;31.83;26.40;;;18.60;99.90;;;;;;4958030;28;20180;-66
2021/07/02 00:29:26;;;;;;;33.97;26.67;;;18.50;99.90;;;;;;4960804;28;20266;-66
2021/07/02 00:31:54;;;;;;;32.43;26.43;;;18.40;99.90;;;;;;4970621;28;20675;-65
2021/07/02 00:34:20;;;;;;;33.17;27.33;;;18.40;99.90;;;;;;4971589;28;20331;-65
2021/07/02 00:36:46;;;;;;;32.63;26.33;;;18.40;99.90;;;;;;4958683;28;20665;-65
2021/07/02 00:39:12;;;;;;;33.93;26.53;;;18.30;99.90;;;;;;4957907;28;20274;-65
2021/07/02 00:41:38;;;;;;;31.83;24.57;;;18.40;99.90;;;;;;4957565;28;20745;-66
2021/07/02 00:44:04;;;;;;;30.73;25.93;;;18.40;99.90;;;;;;4960847;28;20198;-66
2021/07/02 00:46:29;;;;;;;33.33;27.50;;;18.30;99.90;;;;;;4957610;28;20253;-65
2021/07/02 00:48:56;;;;;;;31.30;24.83;;;18.30;99.90;;;;;;4939588;28;20187;-66
2021/07/02 00:51:22;;;;;;;31.87;25.77;;;18.30;99.90;;;;;;4965949;28;20191;-66
2021/07/02 00:53:52;;;;;;;35.10;28.33;;;18.40;99.90;;;;;;4969887;28;20618;-65
2021/07/02 00:56:20;;;;;;;31.57;26.00;;;18.40;99.90;;;;;;4957650;28;20288;-65
2021/07/02 00:58:45;;;;;;;33.00;27.40;;;18.30;99.90;;;;;;4945674;28;20983;-65
2021/07/02 01:01:15;;;;;;;32.10;26.50;;;18.30;99.90;;;;;;4935494;28;20641;-65
2021/07/02 01:03:47;;;;;;;33.97;26.10;;;18.20;99.90;;;;;;4956935;28;20208;-65
2021/07/02 01:06:15;;;;;;;29.73;23.57;;;18.10;99.90;;;;;;4953400;28;21008;-65
2021/07/02 01:08:46;;;;;;;27.70;24.33;;;18.20;99.90;;;;;;4962121;28;20611;-66
2021/07/02 01:11:13;;;;;;;30.30;23.33;;;18.20;99.90;;;;;;4944903;28;21159;-66
2021/07/02 01:13:38;;;;;;;26.53;23.63;;;18.20;99.90;;;;;;4959380;28;20653;-66
2021/07/02 01:16:04;;;;;;;28.47;23.07;;;18.20;99.90;;;;;;4960785;28;20607;-66
2021/07/02 01:18:30;;;;;;;31.63;23.93;;;18.20;99.90;;;;;;4968242;28;20185;-65
2021/07/02 01:20:56;;;;;;;27.63;23.00;;;18.20;99.90;;;;;;4961304;28;20609;-65
2021/07/02 01:23:22;;;;;;;29.23;24.00;;;18.10;99.90;;;;;;4952707;28;20708;-65
2021/07/02 01:25:51;;;;;;;29.50;23.17;;;18.10;99.90;;;;;;4965991;28;20685;-65
2021/07/02 01:28:17;;;;;;;24.50;21.90;;;18.10;99.90;;;;;;4952160;28;20849;-65
2021/07/02 01:30:46;;;;;;;26.63;22.97;;;18.20;99.90;;;;;;4964765;28;21041;-66
2021/07/02 01:33:13;;;;;;;26.80;21.60;;;18.20;99.90;;;;;;4963858;28;20619;-66
2021/07/02 01:35:42;;;;;;;27.40;22.60;;;18.20;99.90;;;;;;4959916;28;20639;-66
2021/07/02 01:38:08;;;;;;;24.13;21.10;;;18.30;99.90;;;;;;4955371;28;20674;-65
2021/07/02 01:40:35;;;;;;;23.33;20.60;;;18.30;99.90;;;;;;4950099;28;20591;-64
2021/07/02 01:43:01;;;;;;;24.43;20.13;;;18.30;99.90;;;;;;4939984;28;20242;-66
2021/07/02 01:45:27;;;;;;;22.73;19.17;;;18.20;99.90;;;;;;4955068;28;20615;-66
2021/07/02 01:47:53;;;;;;;20.17;18.10;;;18.20;99.90;;;;;;4946319;28;20692;-66
2021/07/02 01:50:19;;;;;;;22.50;18.43;;;18.10;99.90;;;;;;4953389;28;20618;-66
2021/07/02 01:52:44;;;;;;;22.67;18.53;;;18.10;99.90;;;;;;4962246;28;20214;-65
2021/07/02 01:55:10;;;;;;;22.63;18.67;;;18.10;99.90;;;;;;4956277;28;20183;-66
2021/07/02 01:57:36;;;;;;;22.20;17.00;;;18.10;99.90;;;;;;4960022;28;20195;-65
2021/07/02 02:00:03;;;;;;;17.93;16.17;;;18.10;99.90;;;;;;4961038;28;20242;-64
2021/07/02 02:02:28;;;;;;;18.20;16.27;;;18.20;99.90;;;;;;4958909;28;20222;-66
2021/07/02 02:04:55;;;;;;;22.33;16.33;;;18.10;99.90;;;;;;4937852;28;20742;-66
2021/07/02 02:07:20;;;;;;;17.00;15.20;;;18.20;99.90;;;;;;4957904;28;20282;-64
2021/07/02 02:09:46;;;;;;;18.10;16.10;;;18.30;99.90;;;;;;4958615;28;20717;-65
2021/07/02 02:12:11;;;;;;;19.33;15.87;;;18.30;99.90;;;;;;4946996;28;20230;-66
2021/07/02 02:14:37;;;;;;;20.50;16.33;;;18.10;99.90;;;;;;4953277;28;20246;-66
2021/07/02 02:17:03;;;;;;;18.63;16.60;;;18.10;99.90;;;;;;4972526;28;20190;-65
2021/07/02 02:19:28;;;;;;;20.83;17.73;;;18.10;99.90;;;;;;4938838;28;20604;-65
2021/07/02 02:21:54;;;;;;;19.30;17.30;;;18.00;99.90;;;;;;4949461;28;20219;-65
2021/07/02 02:24:20;;;;;;;19.17;16.47;;;17.90;99.90;;;;;;4950837;28;20342;-66
2021/07/02 02:26:45;;;;;;;19.13;17.03;;;17.90;99.90;;;;;;4957758;28;20198;-66
2021/07/02 02:29:12;;;;;;;19.40;17.20;;;17.90;99.90;;;;;;4955097;28;20183;-65
2021/07/02 02:31:37;;;;;;;19.57;17.43;;;17.90;99.90;;;;;;4945208;28;20274;-65
2021/07/02 02:34:03;;;;;;;18.23;16.17;;;17.90;99.90;;;;;;4952458;28;20610;-65
2021/07/02 02:36:28;;;;;;;19.70;17.40;;;17.80;99.90;;;;;;4961525;28;20766;-65
2021/07/02 02:38:56;;;;;;;20.37;15.77;;;17.70;99.90;;;;;;4947414;28;20187;-66
2021/07/02 02:41:22;;;;;;;21.13;16.90;;;17.70;99.90;;;;;;4943705;28;20316;-65
2021/07/02 02:43:47;;;;;;;18.53;15.47;;;17.80;99.90;;;;;;4953368;28;20611;-65
2021/07/02 02:46:13;;;;;;;18.07;16.17;;;17.70;99.90;;;;;;4963615;28;20279;-65
2021/07/02 02:48:42;;;;;;;20.17;16.10;;;17.70;99.90;;;;;;4956314;28;20191;-65
2021/07/02 02:51:07;;;;;;;19.23;17.23;;;17.70;99.90;;;;;;4962522;28;20194;-65
2021/07/02 02:53:35;;;;;;;18.80;16.83;;;17.70;99.90;;;;;;4961070;28;20650;-64
2021/07/02 02:56:01;;;;;;;19.97;16.20;;;17.70;99.90;;;;;;4959168;28;20991;-64
2021/07/02 02:58:27;;;;;;;20.13;17.37;;;17.60;99.90;;;;;;4964653;28;20614;-65
2021/07/02 03:00:52;;;;;;;20.47;17.70;;;17.50;99.90;;;;;;4956040;28;20539;-65
2021/07/02 03:03:20;;;;;;;21.83;17.73;;;17.50;99.90;;;;;;4947465;28;20549;-66
2021/07/02 03:05:47;;;;;;;21.00;17.53;;;17.70;99.90;;;;;;4939490;28;20234;-64
2021/07/02 03:08:14;;;;;;;19.47;17.37;;;17.60;99.90;;;;;;4946625;28;20706;-65
2021/07/02 03:10:40;;;;;;;18.60;15.97;;;17.70;99.90;;;;;;4959206;28;20611;-65
2021/07/02 03:13:06;;;;;;;22.57;17.50;;;17.60;99.90;;;;;;4962054;28;20665;-64
2021/07/02 03:15:32;;;;;;;21.40;17.70;;;17.60;99.90;;;;;;4959429;28;20610;-65
2021/07/02 03:17:57;;;;;;;21.07;18.43;;;17.60;99.90;;;;;;4944999;28;20723;-64
2021/07/02 03:20:23;;;;;;;21.40;18.03;;;17.50;99.90;;;;;;4946150;28;20254;-65
2021/07/02 03:22:48;;;;;;;21.17;18.10;;;17.60;99.90;;;;;;4955886;28;20250;-65
2021/07/02 03:25:14;;;;;;;20.17;16.80;;;17.50;99.90;;;;;;4950016;28;20190;-65
2021/07/02 03:27:41;;;;;;;19.53;17.43;;;17.40;99.90;;;;;;4962317;28;20184;-65
2021/07/02 03:30:10;;;;;;;23.00;18.70;;;17.50;99.90;;;;;;4944709;28;20182;-65
2021/07/02 03:32:39;;;;;;;19.70;17.63;;;17.40;99.90;;;;;;4946619;28;20679;-64
2021/07/02 03:35:07;;;;;;;21.60;18.47;;;17.40;99.90;;;;;;4948329;28;21015;-65
2021/07/02 03:37:32;;;;;;;21.17;18.50;;;17.40;99.90;;;;;;4957625;28;20611;-65
2021/07/02 03:39:58;;;;;;;21.47;17.40;;;17.40;99.90;;;;;;4961555;28;20627;-64
2021/07/02 03:42:24;;;;;;;21.93;18.47;;;17.40;99.90;;;;;;4958694;28;20649;-64
2021/07/02 03:44:50;;;;;;;21.90;19.50;;;17.40;99.90;;;;;;4944358;28;20191;-66
2021/07/02 03:47:15;;;;;;;20.97;16.77;;;17.30;99.90;;;;;;4944534;28;20303;-66
2021/07/02 03:49:41;;;;;;;21.30;18.00;;;17.40;99.90;;;;;;4961036;28;20195;-65
2021/07/02 03:52:07;;;;;;;21.37;16.93;;;17.40;99.90;;;;;;4969327;28;24848;-65
2021/07/02 03:54:32;;;;;;;19.90;16.50;;;17.40;99.90;;;;;;4960517;28;20183;-65
2021/07/02 03:57:19;;;;;;;18.57;16.47;;;17.50;99.90;;;;;;4965896;28;20782;-67
2021/07/02 03:59:47;;;;;;;21.17;16.43;;;17.50;99.90;;;;;;4967792;28;20241;-65
2021/07/02 04:02:13;;;;;;;19.20;16.60;;;17.40;99.90;;;;;;4964830;28;21022;-65
2021/07/02 04:04:40;;;;;;;18.27;15.97;;;17.40;99.90;;;;;;4953594;28;20626;-65
2021/07/02 04:07:10;;;;;;;22.07;16.33;;;17.40;99.90;;;;;;4961207;28;20737;-66
2021/07/02 04:09:38;;;;;;;19.00;16.30;;;17.50;99.90;;;;;;4948850;28;20642;-65
2021/07/02 04:12:07;;;;;;;21.03;17.90;;;17.40;99.90;;;;;;4968731;28;20665;-65
2021/07/02 04:14:33;;;;;;;21.77;17.60;;;17.40;99.90;;;;;;4974390;28;20591;-64
2021/07/02 04:16:59;;;;;;;20.27;17.40;;;17.40;99.90;;;;;;4965814;28;20614;-66
2021/07/02 04:19:25;;;;;;;23.23;18.73;;;17.40;99.90;;;;;;4958990;28;20619;-65
2021/07/02 04:21:52;;;;;;;23.77;19.37;;;17.30;99.90;;;;;;4963643;28;20731;-65
2021/07/02 04:24:17;;;;;;;25.10;18.80;;;17.30;99.90;;;;;;4975505;28;20618;-64
2021/07/02 04:26:44;;;;;;;21.10;18.30;;;17.30;99.90;;;;;;4971666;28;20610;-65
2021/07/02 04:29:09;;;;;;;21.17;18.77;;;17.40;99.90;;;;;;4972117;28;20189;-65
2021/07/02 04:31:35;;;;;;;23.93;18.10;;;17.40;99.90;;;;;;4951427;28;20940;-65
2021/07/02 04:34:01;;;;;;;20.83;17.70;;;17.40;99.90;;;;;;4968619;28;20183;-65
2021/07/02 04:36:27;;;;;;;24.43;17.83;;;17.40;99.90;;;;;;4965731;28;20615;-67
2021/07/02 04:38:57;;;;;;;18.67;16.67;;;17.50;99.90;;;;;;4968773;28;20683;-65
2021/07/02 04:41:23;;;;;;;20.47;17.60;;;17.40;99.90;;;;;;4962259;28;20558;-66
2021/07/02 04:43:52;;;;;;;22.00;17.23;;;17.50;99.90;;;;;;4945661;28;21347;-64
2021/07/02 04:46:17;;;;;;;26.23;18.20;;;17.40;99.90;;;;;;4959791;28;20985;-64
2021/07/02 04:48:43;;;;;;;18.20;16.20;;;17.40;99.90;;;;;;4946989;28;20638;-66
2021/07/02 04:51:09;;;;;;;17.67;15.77;;;17.40;99.90;;;;;;4962548;28;20292;-65
2021/07/02 04:53:37;;;;;;;18.87;16.87;;;17.50;99.90;;;;;;4943034;28;20650;-65
2021/07/02 04:56:03;;;;;;;16.50;14.80;;;17.50;99.90;;;;;;4955622;28;20668;-66
2021/07/02 04:58:31;;;;;;;21.20;16.10;;;17.50;99.90;;;;;;4944588;28;20709;-65
2021/07/02 05:00:57;;;;;;;18.43;16.53;;;17.40;99.90;;;;;;4945350;28;20203;-65
2021/07/02 05:03:25;;;;;;;18.53;16.73;;;17.40;99.90;;;;;;4960568;28;21054;-65
2021/07/02 05:05:51;;;;;;;20.03;17.40;;;17.40;99.90;;;;;;4941374;28;20206;-66
2021/07/02 05:08:17;;;;;;;19.33;17.13;;;17.30;99.90;;;;;;4934934;28;20681;-66
2021/07/02 05:10:43;;;;;;;20.17;16.57;;;17.30;99.90;;;;;;4950065;28;20626;-68
2021/07/02 05:13:09;;;;;;;25.93;18.90;;;17.40;99.90;;;;;;4945428;28;20669;-66
2021/07/02 05:15:35;;;;;;;18.37;15.60;;;17.40;99.90;;;;;;4967470;28;20645;-65
2021/07/02 05:18:00;;;;;;;17.90;16.00;;;17.50;99.90;;;;;;4961196;28;20618;-67
2021/07/02 05:20:26;;;;;;;17.63;15.07;;;17.50;99.90;;;;;;4954977;28;20297;-67
2021/07/02 05:22:54;;;;;;;20.77;15.40;;;17.60;99.90;;;;;;4963177;28;20214;-67
2021/07/02 05:25:20;;;;;;;17.17;15.40;;;17.70;99.90;;;;;;4958050;28;20198;-66
2021/07/02 05:27:46;;;;;;;16.23;14.53;;;17.70;99.90;;;;;;4938245;28;21216;-65
2021/07/02 05:30:12;;;;;;;16.67;14.97;;;17.80;99.90;;;;;;4937520;28;20201;-66
2021/07/02 05:32:38;;;;;;;20.43;16.00;;;17.90;99.90;;;;;;4947835;28;21307;-67
2021/07/02 05:35:07;;;;;;;15.50;13.90;;;17.90;99.90;;;;;;4926132;28;20705;-66
2021/07/02 05:37:33;;;;;;;15.43;13.83;;;17.90;99.90;;;;;;4942581;28;20640;-65
2021/07/02 05:39:58;;;;;;;17.03;14.30;;;18.00;99.90;;;;;;4945966;28;20626;-65
2021/07/02 05:42:24;;;;;;;16.80;13.73;;;18.00;99.90;;;;;;4952588;28;20278;-66
2021/07/02 05:44:51;;;;;;;15.33;13.80;;;18.00;99.90;;;;;;4955178;28;20663;-65
2021/07/02 05:47:16;;;;;;;15.20;13.57;;;18.00;99.90;;;;;;4950960;28;21037;-65
2021/07/02 05:49:42;;;;;;;15.37;13.77;;;18.10;99.90;;;;;;4953880;28;20615;-66
2021/07/02 05:52:10;;;;;;;17.07;14.10;;;18.10;99.90;;;;;;4951155;28;20297;-64
2021/07/02 05:54:35;;;;;;;15.60;13.83;;;18.00;99.90;;;;;;4949003;28;20270;-65
2021/07/02 05:57:01;;;;;;;15.70;13.90;;;18.10;99.90;;;;;;4954209;28;21166;-65
2021/07/02 05:59:26;;;;;;;15.27;13.63;;;18.10;99.90;;;;;;4952167;28;20588;-65
2021/07/02 06:01:52;;;;;;;17.13;14.67;;;18.10;99.90;;;;;;4935506;28;20568;-65
2021/07/02 06:04:17;;;;;;;16.40;14.30;;;18.10;99.90;;;;;;4951391;28;20674;-65
2021/07/02 06:06:47;;;;;;;16.20;14.60;;;18.10;99.90;;;;;;4956822;28;20206;-65
2021/07/02 06:09:13;;;;;;;16.40;14.63;;;18.10;99.90;;;;;;4948477;28;20233;-65
2021/07/02 06:11:40;;;;;;;15.90;14.20;;;18.20;99.90;;;;;;5017101;23;20910;-67
2021/07/02 06:14:06;;;;;;;19.40;15.10;;;18.20;99.90;;;;;;4990601;28;20189;-68
2021/07/02 06:19:02;;;;;;;17.30;15.40;;;18.30;99.90;;;;;;4966360;28;20234;-65
2021/07/02 06:21:28;;;;;;;17.93;14.93;;;18.40;99.90;;;;;;4962337;28;20757;-65
2021/07/02 06:23:53;;;;;;;17.27;14.80;;;18.40;99.90;;;;;;4983857;28;21079;-65
2021/07/02 06:26:19;;;;;;;16.37;14.67;;;18.40;99.90;;;;;;4989349;28;20621;-65
2021/07/02 06:28:44;;;;;;;17.73;15.90;;;18.50;99.90;;;;;;4986482;28;20189;-65
2021/07/02 06:31:13;;;;;;;16.47;14.77;;;18.50;99.90;;;;;;4979003;28;20902;-66
2021/07/02 06:33:41;;;;;;;15.37;13.90;;;18.50;99.90;;;;;;4979098;28;20216;-66
2021/07/02 06:36:08;;;;;;;16.57;14.87;;;18.60;99.90;;;;;;4997482;28;20727;-66
2021/07/02 06:38:34;;;;;;;17.97;14.77;;;18.70;99.90;;;;;;4992730;28;21198;-65
2021/07/02 06:41:00;;;;;;;17.67;15.70;;;18.70;99.90;;;;;;4993077;28;20751;-68
2021/07/02 06:43:25;;;;;;;16.67;14.97;;;18.80;99.90;;;;;;4988810;28;20906;-65
2021/07/02 06:45:50;;;;;;;18.70;15.30;;;18.80;99.90;;;;;;4984471;28;20182;-66
2021/07/02 06:48:19;;;;;;;17.20;15.47;;;18.80;99.90;;;;;;4993282;28;20270;-65
2021/07/02 06:50:45;;;;;;;16.07;14.57;;;18.80;99.90;;;;;;4980981;28;20191;-66
2021/07/02 06:53:12;;;;;;;16.20;14.20;;;18.80;99.90;;;;;;4981790;28;21234;-66
2021/07/02 06:55:38;;;;;;;17.20;14.77;;;18.80;99.90;;;;;;4971605;28;20782;-65
2021/07/02 06:58:04;;;;;;;17.97;15.40;;;18.80;99.90;;;;;;4995046;28;20623;-66
2021/07/02 07:00:30;;;;;;;15.60;14.00;;;18.90;99.90;;;;;;5001447;28;20624;-66
2021/07/02 07:02:56;;;;;;;19.50;14.23;;;19.00;99.90;;;;;;5003178;28;20709;-66
2021/07/02 07:05:22;;;;;;;16.37;14.73;;;18.90;99.90;;;;;;4995214;28;20237;-66
2021/07/02 07:07:47;;;;;;;16.10;14.40;;;18.90;99.90;;;;;;4997198;28;20178;-66
2021/07/02 07:10:13;;;;;;;18.90;15.87;;;19.00;99.90;;;;;;4997728;28;20639;-68
2021/07/02 07:12:41;;;;;;;16.20;14.50;;;19.10;99.90;;;;;;4997670;28;20268;-66
2021/07/02 07:15:07;;;;;;;15.63;14.10;;;19.10;99.90;;;;;;4990108;28;21172;-66
2021/07/02 07:17:33;;;;;;;17.47;14.80;;;19.10;99.90;;;;;;5005305;28;21198;-65
2021/07/02 07:19:59;;;;;;;16.60;14.87;;;19.20;99.90;;;;;;4993411;28;20718;-65
2021/07/02 07:22:25;;;;;;;16.50;14.33;;;19.30;99.90;;;;;;4992422;28;20213;-66
2021/07/02 07:24:51;;;;;;;14.27;12.80;;;19.40;99.90;;;;;;4994788;28;20704;-66
2021/07/02 07:27:16;;;;;;;14.93;13.43;;;19.30;99.90;;;;;;5000518;28;20500;-66
2021/07/02 07:29:42;;;;;;;14.23;12.83;;;19.40;99.90;;;;;;4998733;28;20259;-66
2021/07/02 07:32:07;;;;;;;14.70;13.07;;;19.40;99.90;;;;;;4977229;28;20217;-66
2021/07/02 07:34:41;;;;;;;15.87;13.07;;;19.40;99.90;;;;;;5002788;28;20190;-66
2021/07/02 07:37:09;;;;;;;16.00;14.13;;;19.50;99.90;;;;;;4994169;28;20629;-65
2021/07/02 07:39:36;;;;;;;16.73;13.90;;;19.50;99.90;;;;;;4999136;28;20652;-65
2021/07/02 07:42:02;;;;;;;13.90;12.60;;;19.50;99.90;;;;;;5001489;28;20770;-66
2021/07/02 07:44:27;;;;;;;14.37;13.00;;;19.50;99.90;;;;;;4992058;28;20718;-65
2021/07/02 07:46:55;;;;;;;15.10;13.60;;;19.50;99.90;;;;;;4994616;28;20265;-66
2021/07/02 07:49:21;;;;;;;14.67;13.30;;;19.50;99.90;;;;;;4997098;28;20209;-66
2021/07/02 07:52:10;;;;;;;15.23;13.73;;;19.50;99.90;;;;;;4973556;28;20758;-66
2021/07/02 07:54:37;;;;;;;14.13;12.77;;;19.60;99.90;;;;;;5002718;28;20174;-66
2021/07/02 07:57:06;;;;;;;13.97;12.57;;;19.70;99.90;;;;;;5009364;28;20607;-67
2021/07/02 07:59:33;;;;;;;14.20;12.80;;;19.70;99.90;;;;;;4984128;28;20681;-65
2021/07/02 08:01:58;;;;;;;16.33;12.63;;;19.80;99.90;;;;;;5006775;28;20754;-66
2021/07/02 08:04:24;;;;;;;13.47;12.10;;;19.90;99.90;;;;;;4993048;28;20792;-65
2021/07/02 08:06:51;;;;;;;14.10;12.60;;;20.00;99.90;;;;;;4999912;28;20240;-65
2021/07/02 08:09:17;;;;;;;15.30;12.30;;;20.00;99.90;;;;;;4979967;28;20190;-66
2021/07/02 08:11:43;;;;;;;13.20;11.80;;;20.00;99.90;;;;;;5002817;28;20834;-65
2021/07/02 08:14:10;;;;;;;13.37;12.00;;;20.00;99.90;;;;;;4985323;28;21158;-66
2021/07/02 08:16:37;;;;;;;13.07;11.67;;;20.20;99.90;;;;;;4981237;28;20649;-65
2021/07/02 08:19:03;;;;;;;13.13;11.83;;;20.20;99.90;;;;;;4996660;28;20624;-65
2021/07/02 08:21:32;;;;;;;11.70;10.60;;;20.30;99.90;;;;;;4995771;28;21007;-65
2021/07/02 08:23:57;;;;;;;12.73;11.53;;;20.40;99.90;;;;;;5002208;28;20660;-66
2021/07/02 08:26:26;;;;;;;13.33;12.03;;;20.40;99.90;;;;;;4997530;28;20621;-68
2021/07/02 08:31:35;;;;;;;11.40;10.20;;;20.50;99.90;;;;;;4998072;28;20652;-66
2021/07/02 08:34:02;;;;;;;11.30;10.30;;;20.50;99.90;;;;;;4984186;28;21150;-65
2021/07/02 08:36:28;;;;;;;12.50;11.20;;;20.70;99.90;;;;;;4979297;28;20544;-66
2021/07/02 08:38:54;;;;;;;12.67;11.47;;;20.60;99.90;;;;;;4971759;28;20624;-65
2021/07/02 08:41:19;;;;;;;12.87;11.57;;;20.70;99.90;;;;;;4990966;28;20375;-65
2021/07/02 08:43:47;;;;;;;11.53;10.43;;;20.70;99.90;;;;;;4996337;28;20667;-65
2021/07/02 08:46:14;;;;;;;11.73;10.53;;;20.60;99.90;;;;;;4988495;28;20198;-65
2021/07/02 08:48:43;;;;;;;11.33;10.30;;;20.60;99.90;;;;;;4960610;28;21645;-64
2021/07/02 08:51:11;;;;;;;11.57;10.30;;;20.70;99.90;;;;;;4997000;28;20791;-66
2021/07/02 08:53:37;;;;;;;11.23;10.20;;;20.80;99.90;;;;;;5003805;28;20681;-66
2021/07/02 08:56:04;;;;;;;10.83;9.80;;;20.80;99.90;;;;;;4972008;28;20653;-65
2021/07/02 08:58:31;;;;;;;10.80;9.80;;;20.70;99.90;;;;;;5003008;28;20706;-65
2021/07/02 09:00:57;;;;;;;10.40;9.40;;;20.80;99.90;;;;;;4989576;28;20727;-65
2021/07/02 09:03:36;;;;;;;10.00;9.20;;;20.90;99.90;;;;;;4983121;28;21055;-64
2021/07/02 09:06:14;;;;;;;11.10;10.00;;;20.90;99.90;;;;;;4983683;28;20609;-65
2021/07/02 09:08:56;;;;;;;10.10;9.10;;;21.00;99.90;;;;;;4982160;28;22307;-64
2021/07/02 09:11:34;;;;;;;10.30;9.33;;;21.10;99.90;;;;;;4985358;28;20588;-65
2021/07/02 09:14:00;;;;;;;10.47;9.57;;;21.30;99.90;;;;;;4974707;28;20707;-65
2021/07/02 09:16:47;;;;;;;10.27;9.37;;;21.40;99.90;;;;;;4982567;28;21189;-65
2021/07/02 09:19:30;;;;;;;12.57;10.13;;;21.50;99.90;;;;;;4984635;28;20190;-66
2021/07/02 09:22:15;;;;;;;12.80;11.33;;;21.40;99.90;;;;;;4968443;28;20784;-65
2021/07/02 09:24:48;;;;;;;12.57;11.43;;;21.40;99.90;;;;;;4977901;28;20621;-65
2021/07/02 09:27:23;;;;;;;12.83;11.63;;;21.30;99.90;;;;;;4988790;28;20655;-66
2021/07/02 09:30:13;;;;;;;13.77;12.37;;;21.30;99.90;;;;;;4984005;28;20611;-65
2021/07/02 09:32:44;;;;;;;12.73;11.30;;;21.50;99.90;;;;;;4983598;28;21052;-68
2021/07/02 09:35:16;;;;;;;12.13;11.03;;;21.50;99.90;;;;;;4989489;28;20724;-65
2021/07/02 09:37:44;;;;;;;10.60;9.70;;;21.70;99.90;;;;;;4981497;28;20696;-66
2021/07/02 09:40:19;;;;;;;11.50;10.30;;;21.90;99.90;;;;;;4986161;28;20728;-65
2021/07/02 09:42:46;;;;;;;10.10;9.27;;;21.90;99.90;;;;;;4983257;28;20681;-66
2021/07/02 09:45:13;;;;;;;10.33;9.43;;;21.90;99.90;;;;;;4979736;28;20616;-66
2021/07/02 09:47:41;;;;;;;9.90;9.10;;;21.90;99.90;;;;;;4988450;28;20619;-66
2021/07/02 09:50:20;;;;;;;10.67;9.67;;;21.90;99.90;;;;;;4984655;28;20619;-65
2021/07/02 09:52:53;;;;;;;11.90;10.80;;;22.00;99.90;;;;;;4983487;28;20983;-66
2021/07/02 09:55:23;;;;;;;11.10;10.00;;;22.10;99.90;;;;;;4984522;28;21057;-66
2021/07/02 09:57:50;;;;;;;10.80;9.70;;;22.20;99.90;;;;;;4982545;28;20891;-65
2021/07/02 10:00:16;;;;;;;11.07;10.03;;;22.30;99.90;;;;;;4982911;28;20624;-66
2021/07/02 10:02:58;;;;;;;12.30;11.00;;;22.30;99.90;;;;;;4975918;28;20668;-65
2021/07/02 10:05:25;;;;;;;11.97;10.97;;;22.30;99.90;;;;;;4982156;28;20663;-65
2021/07/02 10:08:02;;;;;;;12.00;11.00;;;22.40;99.90;;;;;;4981562;28;20674;-66
2021/07/02 10:10:29;;;;;;;12.37;11.27;;;22.40;99.90;;;;;;4955706;28;20755;-66
2021/07/02 10:12:56;;;;;;;11.17;10.07;;;22.50;99.90;;;;;;4982863;28;20736;-66
2021/07/02 10:15:22;;;;;;;10.60;8.77;;;22.50;99.90;;;;;;4971021;28;20627;-66
2021/07/02 10:17:48;;;;;;;12.37;9.40;;;22.60;99.90;;;;;;4976950;28;20640;-66
2021/07/02 10:20:15;;;;;;;10.07;9.17;;;22.60;99.90;;;;;;4977331;28;21342;-65
2021/07/02 10:22:42;;;;;;;10.83;9.50;;;22.80;99.90;;;;;;4986739;28;20237;-66
2021/07/02 10:25:10;;;;;;;13.07;11.77;;;22.80;99.90;;;;;;4978639;28;20758;-65
2021/07/02 10:27:40;;;;;;;11.53;10.53;;;22.80;99.90;;;;;;4969267;28;21217;-66
2021/07/02 10:30:08;;;;;;;11.70;10.60;;;22.80;99.90;;;;;;4986149;28;20687;-66
2021/07/02 10:32:34;;;;;;;11.60;10.40;;;22.70;99.90;;;;;;4971459;28;20648;-65
2021/07/02 10:35:00;;;;;;;12.13;11.10;;;22.70;99.90;;;;;;4974735;28;20621;-65
2021/07/02 10:37:29;;;;;;;11.50;10.33;;;22.70;99.90;;;;;;4966817;28;20688;-65
2021/07/02 10:39:55;;;;;;;11.73;10.57;;;22.70;99.90;;;;;;4966942;28;20666;-66
2021/07/02 10:42:20;;;;;;;11.60;10.47;;;22.70;99.90;;;;;;4962687;28;20652;-66
2021/07/02 10:44:55;;;;;;;10.40;9.50;;;22.70;99.90;;;;;;4975426;28;20264;-66
2021/07/02 10:47:21;;;;;;;12.13;11.03;;;22.60;99.90;;;;;;4982445;28;20515;-67
2021/07/02 10:49:48;;;;;;;10.70;9.77;;;22.60;99.90;;;;;;4966628;28;20615;-65
2021/07/02 10:52:30;;;;;;;11.67;10.57;;;22.50;99.90;;;;;;4978609;28;20663;-67
2021/07/02 10:54:57;;;;;;;11.87;10.87;;;22.40;99.90;;;;;;4977128;28;20652;-65
2021/07/02 10:57:25;;;;;;;11.57;10.40;;;22.50;99.90;;;;;;4979439;28;20718;-65
2021/07/02 10:59:52;;;;;;;11.73;9.43;;;22.50;99.90;;;;;;4959497;28;20755;-64
2021/07/02 11:02:20;;;;;;;11.00;10.00;;;22.60;99.90;;;;;;4982077;28;20676;-66
2021/07/02 11:05:24;;;;;;;9.23;8.43;;;22.60;99.90;;;;;;4975436;28;22397;-65
2021/07/02 11:07:53;;;;;;;9.50;8.63;;;22.70;99.90;;;;;;4975706;28;20621;-66
2021/07/02 11:10:24;;;;;;;9.83;9.03;;;22.80;99.90;;;;;;4980082;28;20619;-66
2021/07/02 11:12:56;;;;;;;10.20;9.30;;;23.00;99.90;;;;;;4984780;28;20668;-66
2021/07/02 11:15:22;;;;;;;10.30;9.40;;;23.10;99.90;;;;;;4988811;28;20729;-66
2021/07/02 11:17:49;;;;;;;10.93;9.73;;;23.10;99.90;;;;;;4988137;28;21370;-66
2021/07/02 11:20:18;;;;;;;10.83;9.63;;;23.00;99.90;;;;;;4967002;28;20671;-65
2021/07/02 11:22:47;;;;;;;10.30;9.30;;;23.00;99.90;;;;;;4991273;28;21303;-66
2021/07/02 11:28:04;;;;;;;9.10;8.37;;;23.20;99.90;;;;;;4996901;28;20677;-66
2021/07/02 11:33:17;;;;;;;9.03;8.33;;;23.00;99.90;;;;;;5005625;28;20843;-65
2021/07/02 11:35:44;;;;;;;10.13;9.23;;;23.10;99.90;;;;;;5009469;28;20811;-66
2021/07/02 11:38:16;;;;;;;10.23;9.30;;;23.20;99.90;;;;;;5014481;28;20764;-66
2021/07/02 11:40:55;;;;;;;8.83;8.13;;;23.40;99.90;;;;;;4985566;28;21243;-66
2021/07/02 11:43:41;;;;;;;9.90;8.90;;;23.50;99.90;;;;;;4994695;28;21332;-66
2021/07/02 11:46:15;;;;;;;9.33;8.43;;;23.60;99.90;;;;;;4962544;28;20647;-70
2021/07/02 11:48:44;;;;;;;8.80;8.10;;;23.70;99.90;;;;;;4998758;28;20624;-66
2021/07/02 11:51:17;;;;;;;8.50;7.80;;;23.90;99.90;;;;;;4997473;28;20612;-65
2021/07/02 11:53:56;;;;;;;8.93;8.10;;;24.00;99.90;;;;;;4998058;28;20692;-66
2021/07/02 11:56:25;;;;;;;9.10;8.30;;;24.00;99.90;;;;;;4990737;28;21186;-65
2021/07/02 11:58:52;;;;;;;9.70;8.90;;;24.00;99.90;;;;;;5011327;28;20611;-66
2021/07/02 12:01:26;;;;;;;10.20;9.20;;;24.00;99.90;;;;;;4975837;28;20668;-66
2021/07/02 12:03:57;;;;;;;9.50;8.43;;;23.80;99.90;;;;;;4995747;28;20657;-65
2021/07/02 12:06:26;;;;;;;8.90;8.10;;;23.80;99.90;;;;;;4989551;28;20635;-65
2021/07/02 12:09:17;;;;;;;8.90;8.10;;;23.70;99.90;;;;;;4974678;28;21459;-65
2021/07/02 12:11:52;;;;;;;8.30;7.60;;;23.70;99.90;;;;;;4995422;28;20652;-65
2021/07/02 12:14:23;;;;;;;8.10;7.50;;;23.80;99.90;;;;;;4989493;28;20717;-66
2021/07/02 12:16:50;;;;;;;9.10;7.77;;;23.80;99.90;;;;;;4989055;23;20722;-83
2021/07/02 12:19:19;;;;;;;8.27;7.50;;;23.80;99.90;;;;;;4943221;29;20614;-83
2021/07/02 12:24:20;;;;;;;7.70;7.00;;;23.70;99.90;;;;;;4940400;28;20678;-68
2021/07/02 12:26:56;;;;;;;7.53;6.97;;;23.80;99.90;;;;;;4942250;28;20646;-66
2021/07/02 12:29:24;;;;;;;8.20;7.50;;;23.90;99.90;;;;;;4937379;28;20622;-66
2021/07/02 12:31:52;;;;;;;8.03;7.43;;;24.10;99.90;;;;;;4927720;28;20718;-67
2021/07/02 12:34:23;;;;;;;6.87;6.27;;;24.30;99.90;;;;;;4937653;28;20665;-66
2021/07/02 12:36:53;;;;;;;8.03;7.30;;;24.50;99.90;;;;;;4935631;28;20649;-67
2021/07/02 12:39:24;;;;;;;7.77;7.13;;;24.70;99.90;;;;;;4940837;28;20619;-67
2021/07/02 12:41:53;;;;;;;7.90;7.13;;;24.80;99.90;;;;;;4939013;28;20643;-67
2021/07/02 12:44:23;;;;;;;7.73;6.93;;;24.90;99.90;;;;;;4938028;28;20628;-67
2021/07/02 12:46:50;;;;;;;7.50;6.80;;;24.90;99.90;;;;;;4930674;28;21164;-67